sensor_id;sensor_type;location;lat;lon;timestamp;pressure;altitude;pressure_sealevel;temperature;humidity
50867;BME280;36839;51.946;21.002;2023-03-15T00:01:34;98373.39;;;7.89;100.00
50867;BME280;36839;51.946;21.002;2023-03-15T00:04:02;98377.79;;;7.91;100.00
50867;BME280;36839;51.946;21.002;2023-03-15T00:06:34;98384.85;;;7.93;100.00
50867;BME280;36839;51.946;21.002;2023-03-15T00:09:03;98387.78;;;7.96;100.00
50867;BME280;36839;51.946;21.002;2023-03-15T00:11:30;98392.56;;;7.99;100.00
50867;BME280;36839;51.946;21.002;2023-03-15T00:14:02;98394.92;;;8.03;100.00
50867;BME280;36839;51.946;21.002;2023-03-15T00:16:29;98391.02;;;8.08;100.00
50867;BME280;36839;51.946;21.002;2023-03-15T00:18:58;98403.48;;;8.12;100.00
50867;BME280;36839;51.946;21.002;2023-03-15T00:21:26;98403.91;;;8.12;100.00
50867;BME280;36839;51.946;21.002;2023-03-15T00:23:56;98406.46;;;8.14;100.00
50867;BME280;36839;51.946;21.002;2023-03-15T00:26:26;98406.13;;;8.16;100.00
50867;BME280;36839;51.946;21.002;2023-03-15T00:28:53;98414.66;;;8.18;100.00
50867;BME280;36839;51.946;21.002;2023-03-15T00:31:24;98419.67;;;8.21;100.00
50867;BME280;36839;51.946;21.002;2023-03-15T00:33:59;98420.15;;;8.22;100.00
50867;BME280;36839;51.946;21.002;2023-03-15T00:36:31;98424.97;;;8.24;100.00
50867;BME280;36839;51.946;21.002;2023-03-15T00:38:58;98426.98;;;8.26;100.00
50867;BME280;36839;51.946;21.002;2023-03-15T00:41:25;98434.70;;;8.25;100.00
50867;BME280;36839;51.946;21.002;2023-03-15T00:43:53;98456.75;;;8.25;100.00
50867;BME280;36839;51.946;21.002;2023-03-15T00:46:22;98481.99;;;8.17;100.00
50867;BME280;36839;51.946;21.002;2023-03-15T00:48:53;98505.44;;;7.83;100.00
50867;BME280;36839;51.946;21.002;2023-03-15T00:51:22;98518.97;;;7.29;100.00
50867;BME280;36839;51.946;21.002;2023-03-15T00:53:51;98533.31;;;6.74;100.00
50867;BME280;36839;51.946;21.002;2023-03-15T00:56:23;98542.73;;;6.39;100.00
50867;BME280;36839;51.946;21.002;2023-03-15T00:58:51;98551.91;;;6.15;100.00
50867;BME280;36839;51.946;21.002;2023-03-15T01:01:22;98569.85;;;5.79;100.00
50867;BME280;36839;51.946;21.002;2023-03-15T01:03:51;98569.38;;;5.53;100.00
50867;BME280;36839;51.946;21.002;2023-03-15T01:06:26;98586.66;;;5.34;100.00
50867;BME280;36839;51.946;21.002;2023-03-15T01:08:54;98598.73;;;5.14;100.00
50867;BME280;36839;51.946;21.002;2023-03-15T01:11:26;98622.16;;;4.93;100.00
50867;BME280;36839;51.946;21.002;2023-03-15T01:14:00;98628.70;;;4.70;100.00
50867;BME280;36839;51.946;21.002;2023-03-15T01:16:31;98630.89;;;4.51;100.00
50867;BME280;36839;51.946;21.002;2023-03-15T01:19:03;98651.89;;;4.31;100.00
50867;BME280;36839;51.946;21.002;2023-03-15T01:21:34;98648.67;;;4.20;100.00
50867;BME280;36839;51.946;21.002;2023-03-15T01:24:05;98679.73;;;4.01;100.00
50867;BME280;36839;51.946;21.002;2023-03-15T01:26:37;98677.54;;;3.91;100.00
50867;BME280;36839;51.946;21.002;2023-03-15T01:29:07;98693.96;;;3.78;100.00
50867;BME280;36839;51.946;21.002;2023-03-15T01:31:38;98722.49;;;3.65;100.00
50867;BME280;36839;51.946;21.002;2023-03-15T01:34:06;98736.16;;;3.61;100.00
50867;BME280;36839;51.946;21.002;2023-03-15T01:36:34;98752.52;;;3.51;100.00
50867;BME280;36839;51.946;21.002;2023-03-15T01:39:03;98732.20;;;3.37;100.00
50867;BME280;36839;51.946;21.002;2023-03-15T01:41:31;98727.83;;;3.29;100.00
50867;BME280;36839;51.946;21.002;2023-03-15T01:43:58;98743.02;;;3.21;100.00
50867;BME280;36839;51.946;21.002;2023-03-15T01:46:30;98755.48;;;3.16;100.00
50867;BME280;36839;51.946;21.002;2023-03-15T01:51:52;98791.29;;;2.97;100.00
50867;BME280;36839;51.946;21.002;2023-03-15T01:54:27;98793.06;;;2.95;100.00
50867;BME280;36839;51.946;21.002;2023-03-15T01:57:12;98797.45;;;2.94;100.00
50867;BME280;36839;51.946;21.002;2023-03-15T01:59:46;98808.69;;;2.94;100.00
50867;BME280;36839;51.946;21.002;2023-03-15T02:02:15;98819.96;;;2.93;100.00
50867;BME280;36839;51.946;21.002;2023-03-15T02:05:08;98825.67;;;2.91;100.00
50867;BME280;36839;51.946;21.002;2023-03-15T02:07:41;98837.36;;;2.92;100.00
50867;BME280;36839;51.946;21.002;2023-03-15T02:10:19;98845.22;;;2.93;100.00
50867;BME280;36839;51.946;21.002;2023-03-15T02:12:50;98864.46;;;2.92;100.00
50867;BME280;36839;51.946;21.002;2023-03-15T02:15:18;98874.36;;;2.93;100.00
50867;BME280;36839;51.946;21.002;2023-03-15T02:17:48;98883.89;;;2.95;100.00
50867;BME280;36839;51.946;21.002;2023-03-15T02:23:12;98903.59;;;2.96;100.00
50867;BME280;36839;51.946;21.002;2023-03-15T02:28:59;98943.42;;;2.86;100.00
50867;BME280;36839;51.946;21.002;2023-03-15T02:31:32;98960.90;;;2.80;100.00
50867;BME280;36839;51.946;21.002;2023-03-15T02:34:06;98972.23;;;2.75;100.00
50867;BME280;36839;51.946;21.002;2023-03-15T02:36:37;98972.45;;;2.72;100.00
50867;BME280;36839;51.946;21.002;2023-03-15T02:39:19;98965.85;;;2.68;100.00
50867;BME280;36839;51.946;21.002;2023-03-15T02:41:53;98966.70;;;2.69;100.00
50867;BME280;36839;51.946;21.002;2023-03-15T02:44:31;98973.37;;;2.64;100.00
50867;BME280;36839;51.946;21.002;2023-03-15T02:47:15;98982.52;;;2.59;100.00
50867;BME280;36839;51.946;21.002;2023-03-15T02:49:52;98974.98;;;2.58;100.00
50867;BME280;36839;51.946;21.002;2023-03-15T02:52:21;98979.39;;;2.58;100.00
50867;BME280;36839;51.946;21.002;2023-03-15T02:54:53;98988.48;;;2.57;100.00
50867;BME280;36839;51.946;21.002;2023-03-15T02:57:19;99007.23;;;2.54;100.00
50867;BME280;36839;51.946;21.002;2023-03-15T02:59:49;99002.67;;;2.52;100.00
50867;BME280;36839;51.946;21.002;2023-03-15T03:02:16;99006.98;;;2.53;100.00
50867;BME280;36839;51.946;21.002;2023-03-15T03:04:44;99013.18;;;2.51;100.00
50867;BME280;36839;51.946;21.002;2023-03-15T03:07:13;99022.77;;;2.51;100.00
50867;BME280;36839;51.946;21.002;2023-03-15T03:09:40;99026.02;;;2.50;100.00
50867;BME280;36839;51.946;21.002;2023-03-15T03:12:10;99026.05;;;2.48;100.00
50867;BME280;36839;51.946;21.002;2023-03-15T03:14:37;99032.50;;;2.47;100.00
50867;BME280;36839;51.946;21.002;2023-03-15T03:17:06;99035.69;;;2.47;100.00
50867;BME280;36839;51.946;21.002;2023-03-15T03:19:34;99040.66;;;2.48;100.00
50867;BME280;36839;51.946;21.002;2023-03-15T03:22:01;99056.00;;;2.50;100.00
50867;BME280;36839;51.946;21.002;2023-03-15T03:24:29;99059.60;;;2.50;100.00
50867;BME280;36839;51.946;21.002;2023-03-15T03:26:57;99069.61;;;2.53;100.00
50867;BME280;36839;51.946;21.002;2023-03-15T03:29:26;99083.84;;;2.53;100.00
50867;BME280;36839;51.946;21.002;2023-03-15T03:31:54;99094.66;;;2.54;100.00
50867;BME280;36839;51.946;21.002;2023-03-15T03:34:25;99098.30;;;2.54;100.00
50867;BME280;36839;51.946;21.002;2023-03-15T03:36:52;99100.49;;;2.56;100.00
50867;BME280;36839;51.946;21.002;2023-03-15T03:39:19;99109.09;;;2.59;100.00
50867;BME280;36839;51.946;21.002;2023-03-15T03:41:46;99117.02;;;2.60;100.00
50867;BME280;36839;51.946;21.002;2023-03-15T03:44:16;99120.23;;;2.60;100.00
50867;BME280;36839;51.946;21.002;2023-03-15T03:46:51;99122.56;;;2.59;100.00
50867;BME280;36839;51.946;21.002;2023-03-15T03:49:18;99123.33;;;2.59;100.00
50867;BME280;36839;51.946;21.002;2023-03-15T03:51:46;99120.52;;;2.55;100.00
50867;BME280;36839;51.946;21.002;2023-03-15T03:54:18;99123.96;;;2.53;100.00
50867;BME280;36839;51.946;21.002;2023-03-15T03:56:47;99138.75;;;2.50;100.00
50867;BME280;36839;51.946;21.002;2023-03-15T03:59:16;99141.47;;;2.47;100.00
50867;BME280;36839;51.946;21.002;2023-03-15T04:01:46;99147.27;;;2.42;100.00
50867;BME280;36839;51.946;21.002;2023-03-15T04:04:16;99150.48;;;2.39;100.00
50867;BME280;36839;51.946;21.002;2023-03-15T04:06:43;99150.58;;;2.39;100.00
50867;BME280;36839;51.946;21.002;2023-03-15T04:09:15;99145.79;;;2.38;100.00
50867;BME280;36839;51.946;21.002;2023-03-15T04:11:42;99147.48;;;2.37;100.00
50867;BME280;36839;51.946;21.002;2023-03-15T04:14:14;99149.31;;;2.33;100.00
50867;BME280;36839;51.946;21.002;2023-03-15T04:16:41;99144.83;;;2.32;100.00
50867;BME280;36839;51.946;21.002;2023-03-15T04:19:12;99147.38;;;2.30;100.00
50867;BME280;36839;51.946;21.002;2023-03-15T04:21:39;99155.33;;;2.31;100.00
50867;BME280;36839;51.946;21.002;2023-03-15T04:24:13;99157.13;;;2.31;100.00
50867;BME280;36839;51.946;21.002;2023-03-15T04:26:42;99168.23;;;2.29;100.00
50867;BME280;36839;51.946;21.002;2023-03-15T04:29:11;99174.98;;;2.29;100.00
50867;BME280;36839;51.946;21.002;2023-03-15T04:31:40;99174.83;;;2.30;100.00
50867;BME280;36839;51.946;21.002;2023-03-15T04:34:08;99174.59;;;2.30;100.00
50867;BME280;36839;51.946;21.002;2023-03-15T04:36:39;99188.30;;;2.26;100.00
50867;BME280;36839;51.946;21.002;2023-03-15T04:39:08;99182.02;;;2.27;100.00
50867;BME280;36839;51.946;21.002;2023-03-15T04:41:36;99190.16;;;2.26;100.00
50867;BME280;36839;51.946;21.002;2023-03-15T04:44:05;99201.44;;;2.28;100.00
50867;BME280;36839;51.946;21.002;2023-03-15T04:46:32;99217.41;;;2.28;100.00
50867;BME280;36839;51.946;21.002;2023-03-15T04:49:05;99220.17;;;2.26;100.00
50867;BME280;36839;51.946;21.002;2023-03-15T04:51:35;99212.58;;;2.25;100.00
50867;BME280;36839;51.946;21.002;2023-03-15T04:54:04;99209.52;;;2.24;100.00
50867;BME280;36839;51.946;21.002;2023-03-15T04:56:32;99212.05;;;2.25;100.00
50867;BME280;36839;51.946;21.002;2023-03-15T04:59:02;99219.58;;;2.26;100.00
50867;BME280;36839;51.946;21.002;2023-03-15T05:01:31;99232.73;;;2.25;100.00
50867;BME280;36839;51.946;21.002;2023-03-15T05:03:58;99226.98;;;2.23;100.00
50867;BME280;36839;51.946;21.002;2023-03-15T05:06:26;99232.15;;;2.26;100.00
50867;BME280;36839;51.946;21.002;2023-03-15T05:08:54;99235.73;;;2.24;100.00
50867;BME280;36839;51.946;21.002;2023-03-15T05:11:22;99238.98;;;2.24;100.00
50867;BME280;36839;51.946;21.002;2023-03-15T05:13:49;99250.50;;;2.25;100.00
50867;BME280;36839;51.946;21.002;2023-03-15T05:16:18;99254.63;;;2.24;100.00
50867;BME280;36839;51.946;21.002;2023-03-15T05:18:46;99258.71;;;2.24;100.00
50867;BME280;36839;51.946;21.002;2023-03-15T05:21:13;99261.08;;;2.27;100.00
50867;BME280;36839;51.946;21.002;2023-03-15T05:23:42;99263.92;;;2.26;100.00
50867;BME280;36839;51.946;21.002;2023-03-15T05:26:09;99268.80;;;2.22;100.00
50867;BME280;36839;51.946;21.002;2023-03-15T05:28:36;99267.23;;;2.19;100.00
50867;BME280;36839;51.946;21.002;2023-03-15T05:31:04;99265.42;;;2.19;100.00
50867;BME280;36839;51.946;21.002;2023-03-15T05:33:34;99281.45;;;2.17;100.00
50867;BME280;36839;51.946;21.002;2023-03-15T05:36:02;99281.10;;;2.16;100.00
50867;BME280;36839;51.946;21.002;2023-03-15T05:38:29;99290.48;;;2.12;100.00
50867;BME280;36839;51.946;21.002;2023-03-15T05:40:57;99300.30;;;2.12;100.00
50867;BME280;36839;51.946;21.002;2023-03-15T05:43:27;99314.46;;;2.10;100.00
50867;BME280;36839;51.946;21.002;2023-03-15T05:45:55;99310.80;;;2.07;100.00
50867;BME280;36839;51.946;21.002;2023-03-15T05:48:24;99306.79;;;2.10;100.00
50867;BME280;36839;51.946;21.002;2023-03-15T05:50:52;99323.03;;;2.08;100.00
50867;BME280;36839;51.946;21.002;2023-03-15T05:53:19;99325.67;;;2.05;100.00
50867;BME280;36839;51.946;21.002;2023-03-15T05:55:46;99329.38;;;2.05;100.00
50867;BME280;36839;51.946;21.002;2023-03-15T05:58:15;99332.45;;;2.06;100.00
50867;BME280;36839;51.946;21.002;2023-03-15T06:00:44;99337.04;;;2.11;100.00
50867;BME280;36839;51.946;21.002;2023-03-15T06:03:14;99349.06;;;2.12;100.00
50867;BME280;36839;51.946;21.002;2023-03-15T06:05:41;99358.67;;;2.16;100.00
50867;BME280;36839;51.946;21.002;2023-03-15T06:08:09;99366.13;;;2.16;100.00
50867;BME280;36839;51.946;21.002;2023-03-15T06:10:38;99370.29;;;2.17;100.00
50867;BME280;36839;51.946;21.002;2023-03-15T06:13:07;99375.76;;;2.17;100.00
50867;BME280;36839;51.946;21.002;2023-03-15T06:15:35;99382.73;;;2.08;100.00
50867;BME280;36839;51.946;21.002;2023-03-15T06:18:02;99387.40;;;2.05;100.00
50867;BME280;36839;51.946;21.002;2023-03-15T06:20:30;99386.64;;;2.06;100.00
50867;BME280;36839;51.946;21.002;2023-03-15T06:23:00;99385.55;;;2.06;100.00
50867;BME280;36839;51.946;21.002;2023-03-15T06:25:30;99389.92;;;2.07;100.00
50867;BME280;36839;51.946;21.002;2023-03-15T06:27:57;99392.06;;;2.07;100.00
50867;BME280;36839;51.946;21.002;2023-03-15T06:30:26;99405.69;;;2.04;100.00
50867;BME280;36839;51.946;21.002;2023-03-15T06:32:54;99405.23;;;2.09;100.00
50867;BME280;36839;51.946;21.002;2023-03-15T06:35:21;99403.04;;;2.08;100.00
50867;BME280;36839;51.946;21.002;2023-03-15T06:37:55;99410.15;;;2.09;100.00
50867;BME280;36839;51.946;21.002;2023-03-15T06:40:22;99411.85;;;2.09;100.00
50867;BME280;36839;51.946;21.002;2023-03-15T06:42:50;99418.93;;;2.14;100.00
50867;BME280;36839;51.946;21.002;2023-03-15T06:45:17;99430.25;;;2.16;100.00
50867;BME280;36839;51.946;21.002;2023-03-15T06:47:44;99437.03;;;2.14;100.00
50867;BME280;36839;51.946;21.002;2023-03-15T06:50:14;99436.85;;;2.18;100.00
50867;BME280;36839;51.946;21.002;2023-03-15T06:52:42;99440.36;;;2.23;100.00
50867;BME280;36839;51.946;21.002;2023-03-15T06:55:11;99439.14;;;2.31;100.00
50867;BME280;36839;51.946;21.002;2023-03-15T06:57:44;99433.38;;;2.37;100.00
50867;BME280;36839;51.946;21.002;2023-03-15T07:00:14;99433.66;;;2.44;100.00
50867;BME280;36839;51.946;21.002;2023-03-15T07:02:42;99435.92;;;2.43;100.00
50867;BME280;36839;51.946;21.002;2023-03-15T07:05:14;99436.84;;;2.40;100.00
50867;BME280;36839;51.946;21.002;2023-03-15T07:07:43;99449.84;;;2.38;100.00
50867;BME280;36839;51.946;21.002;2023-03-15T07:10:11;99453.70;;;2.31;100.00
50867;BME280;36839;51.946;21.002;2023-03-15T07:12:40;99450.24;;;2.29;100.00
50867;BME280;36839;51.946;21.002;2023-03-15T07:15:10;99453.73;;;2.35;100.00
50867;BME280;36839;51.946;21.002;2023-03-15T07:17:37;99462.88;;;2.33;100.00
50867;BME280;36839;51.946;21.002;2023-03-15T07:20:09;99460.82;;;2.36;100.00
50867;BME280;36839;51.946;21.002;2023-03-15T07:22:37;99463.36;;;2.37;100.00
50867;BME280;36839;51.946;21.002;2023-03-15T07:25:09;99468.59;;;2.35;100.00
50867;BME280;36839;51.946;21.002;2023-03-15T07:27:36;99476.19;;;2.34;100.00
50867;BME280;36839;51.946;21.002;2023-03-15T07:30:03;99473.55;;;2.34;100.00
50867;BME280;36839;51.946;21.002;2023-03-15T07:32:31;99471.23;;;2.38;100.00
50867;BME280;36839;51.946;21.002;2023-03-15T07:35:00;99482.24;;;2.45;100.00
50867;BME280;36839;51.946;21.002;2023-03-15T07:37:28;99483.37;;;2.46;100.00
50867;BME280;36839;51.946;21.002;2023-03-15T07:39:55;99481.56;;;2.48;100.00
50867;BME280;36839;51.946;21.002;2023-03-15T07:42:21;99490.20;;;2.61;100.00
50867;BME280;36839;51.946;21.002;2023-03-15T07:44:50;99499.00;;;2.61;100.00
50867;BME280;36839;51.946;21.002;2023-03-15T07:47:19;99492.48;;;2.65;100.00
50867;BME280;36839;51.946;21.002;2023-03-15T07:49:47;99504.38;;;2.63;100.00
50867;BME280;36839;51.946;21.002;2023-03-15T07:52:14;99503.30;;;2.65;100.00
50867;BME280;36839;51.946;21.002;2023-03-15T07:54:45;99507.63;;;2.68;100.00
50867;BME280;36839;51.946;21.002;2023-03-15T07:57:14;99518.20;;;2.72;100.00
50867;BME280;36839;51.946;21.002;2023-03-15T07:59:41;99522.09;;;2.65;100.00
50867;BME280;36839;51.946;21.002;2023-03-15T08:02:12;99535.72;;;2.65;100.00
50867;BME280;36839;51.946;21.002;2023-03-15T08:04:41;99545.01;;;2.61;100.00
50867;BME280;36839;51.946;21.002;2023-03-15T08:07:11;99547.58;;;2.56;100.00
50867;BME280;36839;51.946;21.002;2023-03-15T08:09:42;99560.19;;;2.57;100.00
50867;BME280;36839;51.946;21.002;2023-03-15T08:12:10;99572.80;;;2.54;100.00
50867;BME280;36839;51.946;21.002;2023-03-15T08:14:43;99578.58;;;2.54;100.00
50867;BME280;36839;51.946;21.002;2023-03-15T08:17:10;99582.09;;;2.59;100.00
50867;BME280;36839;51.946;21.002;2023-03-15T08:19:39;99576.41;;;2.67;100.00
50867;BME280;36839;51.946;21.002;2023-03-15T08:22:06;99580.42;;;2.73;100.00
50867;BME280;36839;51.946;21.002;2023-03-15T08:24:35;99575.96;;;2.82;100.00
50867;BME280;36839;51.946;21.002;2023-03-15T08:27:04;99577.95;;;2.81;100.00
50867;BME280;36839;51.946;21.002;2023-03-15T08:29:31;99585.60;;;2.93;100.00
50867;BME280;36839;51.946;21.002;2023-03-15T08:31:58;99589.48;;;3.05;100.00
50867;BME280;36839;51.946;21.002;2023-03-15T08:34:25;99596.64;;;3.19;100.00
50867;BME280;36839;51.946;21.002;2023-03-15T08:36:52;99599.31;;;3.31;100.00
50867;BME280;36839;51.946;21.002;2023-03-15T08:39:20;99605.61;;;3.34;100.00
50867;BME280;36839;51.946;21.002;2023-03-15T08:41:49;99616.17;;;3.32;100.00
50867;BME280;36839;51.946;21.002;2023-03-15T08:44:19;99625.59;;;3.31;100.00
50867;BME280;36839;51.946;21.002;2023-03-15T08:46:47;99631.91;;;3.28;100.00
50867;BME280;36839;51.946;21.002;2023-03-15T08:49:14;99629.45;;;3.41;100.00
50867;BME280;36839;51.946;21.002;2023-03-15T08:51:41;99632.49;;;3.33;100.00
50867;BME280;36839;51.946;21.002;2023-03-15T08:54:09;99624.34;;;3.31;100.00
50867;BME280;36839;51.946;21.002;2023-03-15T08:56:44;99635.29;;;3.33;100.00
50867;BME280;36839;51.946;21.002;2023-03-15T08:59:11;99632.62;;;3.26;100.00
50867;BME280;36839;51.946;21.002;2023-03-15T09:01:38;99641.10;;;3.42;100.00
50867;BME280;36839;51.946;21.002;2023-03-15T09:04:06;99646.45;;;3.48;100.00
50867;BME280;36839;51.946;21.002;2023-03-15T09:06:33;99650.89;;;3.54;100.00
50867;BME280;36839;51.946;21.002;2023-03-15T09:09:02;99647.48;;;3.63;100.00
50867;BME280;36839;51.946;21.002;2023-03-15T09:11:32;99648.33;;;3.76;100.00
50867;BME280;36839;51.946;21.002;2023-03-15T09:14:02;99642.79;;;3.88;99.79
50867;BME280;36839;51.946;21.002;2023-03-15T09:16:33;99638.69;;;3.95;99.48
50867;BME280;36839;51.946;21.002;2023-03-15T09:19:00;99640.19;;;4.02;97.13
50867;BME280;36839;51.946;21.002;2023-03-15T09:21:28;99652.05;;;4.02;95.38
50867;BME280;36839;51.946;21.002;2023-03-15T09:23:55;99651.82;;;3.84;93.18
50867;BME280;36839;51.946;21.002;2023-03-15T09:26:24;99655.27;;;3.69;93.02
50867;BME280;36839;51.946;21.002;2023-03-15T09:28:51;99648.73;;;3.67;93.44
50867;BME280;36839;51.946;21.002;2023-03-15T09:31:21;99649.30;;;3.70;95.39
50867;BME280;36839;51.946;21.002;2023-03-15T09:33:49;99654.45;;;3.76;94.42
50867;BME280;36839;51.946;21.002;2023-03-15T09:36:16;99647.89;;;3.76;95.28
50867;BME280;36839;51.946;21.002;2023-03-15T09:38:50;99646.77;;;3.85;94.98
50867;BME280;36839;51.946;21.002;2023-03-15T09:46:47;99653.04;;;4.05;95.33
50867;BME280;36839;51.946;21.002;2023-03-15T09:49:39;99656.61;;;4.07;92.81
50867;BME280;36839;51.946;21.002;2023-03-15T09:54:53;99659.25;;;4.10;92.10
50867;BME280;36839;51.946;21.002;2023-03-15T09:57:35;99659.21;;;4.15;93.36
50867;BME280;36839;51.946;21.002;2023-03-15T10:00:06;99660.39;;;4.12;94.31
50867;BME280;36839;51.946;21.002;2023-03-15T10:02:47;99662.27;;;4.13;93.47
50867;BME280;36839;51.946;21.002;2023-03-15T10:05:25;99660.42;;;4.30;94.07
50867;BME280;36839;51.946;21.002;2023-03-15T10:07:53;99657.89;;;4.34;91.67
50867;BME280;36839;51.946;21.002;2023-03-15T10:10:30;99666.11;;;4.21;89.47
50867;BME280;36839;51.946;21.002;2023-03-15T10:16:00;99672.92;;;3.90;89.05
50867;BME280;36839;51.946;21.002;2023-03-15T10:18:46;99667.42;;;3.85;89.94
50867;BME280;36839;51.946;21.002;2023-03-15T10:28:25;99660.77;;;4.01;89.95
50867;BME280;36839;51.946;21.002;2023-03-15T10:30:51;99648.06;;;4.08;90.85
50867;BME280;36839;51.946;21.002;2023-03-15T10:35:52;99649.88;;;4.29;91.13
50867;BME280;36839;51.946;21.002;2023-03-15T10:38:23;99659.89;;;4.50;92.13
50867;BME280;36839;51.946;21.002;2023-03-15T10:40:57;99658.45;;;4.60;90.72
50867;BME280;36839;51.946;21.002;2023-03-15T10:43:28;99664.63;;;4.72;87.82
50867;BME280;36839;51.946;21.002;2023-03-15T10:46:21;99659.99;;;4.91;85.42
50867;BME280;36839;51.946;21.002;2023-03-15T10:48:59;99665.20;;;4.95;83.95
50867;BME280;36839;51.946;21.002;2023-03-15T10:51:41;99661.84;;;5.07;83.93
50867;BME280;36839;51.946;21.002;2023-03-15T10:56:58;99666.05;;;4.88;80.43
50867;BME280;36839;51.946;21.002;2023-03-15T10:59:35;99665.20;;;4.92;81.31
50867;BME280;36839;51.946;21.002;2023-03-15T11:04:47;99661.64;;;4.89;81.59
50867;BME280;36839;51.946;21.002;2023-03-15T11:07:16;99666.33;;;4.99;82.31
50867;BME280;36839;51.946;21.002;2023-03-15T11:09:58;99676.80;;;5.10;83.36
50867;BME280;36839;51.946;21.002;2023-03-15T11:12:28;99680.52;;;4.95;80.59
50867;BME280;36839;51.946;21.002;2023-03-15T11:15:31;99668.65;;;4.92;80.60
50867;BME280;36839;51.946;21.002;2023-03-15T11:17:58;99666.75;;;4.87;80.41
50867;BME280;36839;51.946;21.002;2023-03-15T11:20:31;99668.45;;;4.93;81.14
50867;BME280;36839;51.946;21.002;2023-03-15T11:23:16;99678.08;;;4.96;81.99
50867;BME280;36839;51.946;21.002;2023-03-15T11:25:46;99671.10;;;5.07;83.78
50867;BME280;36839;51.946;21.002;2023-03-15T11:28:27;99679.55;;;5.16;82.75
50867;BME280;36839;51.946;21.002;2023-03-15T11:30:56;99670.53;;;5.22;81.09
50867;BME280;36839;51.946;21.002;2023-03-15T11:33:50;99680.27;;;5.09;76.71
50867;BME280;36839;51.946;21.002;2023-03-15T11:36:23;99670.95;;;5.27;78.81
50867;BME280;36839;51.946;21.002;2023-03-15T11:38:58;99676.16;;;5.15;78.70
50867;BME280;36839;51.946;21.002;2023-03-15T11:41:51;99688.11;;;5.06;78.91
50867;BME280;36839;51.946;21.002;2023-03-15T11:44:35;99684.55;;;4.96;77.75
50867;BME280;36839;51.946;21.002;2023-03-15T11:50:02;99687.08;;;4.88;78.15
50867;BME280;36839;51.946;21.002;2023-03-15T11:52:30;99693.65;;;4.88;77.92
50867;BME280;36839;51.946;21.002;2023-03-15T11:55:00;99688.08;;;5.08;80.85
50867;BME280;36839;51.946;21.002;2023-03-15T11:57:48;99687.16;;;5.25;80.56
50867;BME280;36839;51.946;21.002;2023-03-15T12:02:59;99683.65;;;5.59;77.64
50867;BME280;36839;51.946;21.002;2023-03-15T12:08:48;99690.66;;;5.87;75.64
50867;BME280;36839;51.946;21.002;2023-03-15T12:16:31;99699.49;;;5.22;75.63
50867;BME280;36839;51.946;21.002;2023-03-15T12:19:09;99699.46;;;5.01;75.52
50867;BME280;36839;51.946;21.002;2023-03-15T12:21:47;99706.42;;;4.95;76.31
50867;BME280;36839;51.946;21.002;2023-03-15T12:24:45;99707.23;;;5.01;77.71
50867;BME280;36839;51.946;21.002;2023-03-15T12:27:15;99708.20;;;4.91;77.02
50867;BME280;36839;51.946;21.002;2023-03-15T12:29:45;99711.19;;;5.02;78.00
50867;BME280;36839;51.946;21.002;2023-03-15T12:32:17;99713.70;;;5.04;77.54
50867;BME280;36839;51.946;21.002;2023-03-15T12:37:42;99729.25;;;5.11;76.20
50867;BME280;36839;51.946;21.002;2023-03-15T12:45:41;99730.46;;;4.99;77.29
50867;BME280;36839;51.946;21.002;2023-03-15T12:48:17;99736.74;;;5.04;76.62
50867;BME280;36839;51.946;21.002;2023-03-15T12:50:53;99734.23;;;5.02;77.14
50867;BME280;36839;51.946;21.002;2023-03-15T12:53:48;99739.55;;;4.94;75.88
50867;BME280;36839;51.946;21.002;2023-03-15T12:56:41;99742.80;;;4.97;75.89
50867;BME280;36839;51.946;21.002;2023-03-15T12:59:16;99750.30;;;4.92;77.20
50867;BME280;36839;51.946;21.002;2023-03-15T13:01:44;99751.23;;;4.97;75.88
50867;BME280;36839;51.946;21.002;2023-03-15T13:04:13;99757.70;;;5.01;74.81
50867;BME280;36839;51.946;21.002;2023-03-15T13:10:01;99758.27;;;4.94;75.97
50867;BME280;36839;51.946;21.002;2023-03-15T13:12:49;99762.70;;;4.90;76.13
50867;BME280;36839;51.946;21.002;2023-03-15T13:15:23;99758.02;;;4.80;75.33
50867;BME280;36839;51.946;21.002;2023-03-15T13:18:03;99752.05;;;4.79;75.83
50867;BME280;36839;51.946;21.002;2023-03-15T13:20:41;99756.38;;;4.83;76.45
50867;BME280;36839;51.946;21.002;2023-03-15T13:23:31;99757.98;;;4.92;77.97
50867;BME280;36839;51.946;21.002;2023-03-15T13:26:41;99771.89;;;4.93;76.01
50867;BME280;36839;51.946;21.002;2023-03-15T13:29:39;99779.06;;;4.93;74.89
50867;BME280;36839;51.946;21.002;2023-03-15T13:32:16;99775.52;;;4.95;76.14
50867;BME280;36839;51.946;21.002;2023-03-15T13:34:45;99788.34;;;4.98;76.55
50867;BME280;36839;51.946;21.002;2023-03-15T13:37:22;99789.13;;;4.84;76.49
50867;BME280;36839;51.946;21.002;2023-03-15T13:40:13;99788.55;;;4.86;76.06
50867;BME280;36839;51.946;21.002;2023-03-15T13:42:41;99793.40;;;4.88;76.05
50867;BME280;36839;51.946;21.002;2023-03-15T13:45:14;99796.02;;;4.91;76.62
50867;BME280;36839;51.946;21.002;2023-03-15T13:47:45;99791.90;;;4.89;76.39
50867;BME280;36839;51.946;21.002;2023-03-15T13:50:19;99785.33;;;5.03;75.19
50867;BME280;36839;51.946;21.002;2023-03-15T13:52:48;99800.46;;;5.07;74.11
50867;BME280;36839;51.946;21.002;2023-03-15T13:55:22;99797.44;;;5.15;73.55
50867;BME280;36839;51.946;21.002;2023-03-15T13:57:56;99802.50;;;5.26;72.86
50867;BME280;36839;51.946;21.002;2023-03-15T14:00:25;99799.77;;;5.23;71.36
50867;BME280;36839;51.946;21.002;2023-03-15T14:02:57;99795.48;;;5.28;71.78
50867;BME280;36839;51.946;21.002;2023-03-15T14:05:32;99809.63;;;5.29;69.89
50867;BME280;36839;51.946;21.002;2023-03-15T14:08:05;99810.32;;;5.28;68.53
50867;BME280;36839;51.946;21.002;2023-03-15T14:10:39;99809.98;;;5.39;67.96
50867;BME280;36839;51.946;21.002;2023-03-15T14:15:49;99804.89;;;5.49;67.09
50867;BME280;36839;51.946;21.002;2023-03-15T14:18:22;99818.95;;;5.41;66.90